sensor_id;sensor_type;location;lat;lon;timestamp;temperature;humidity
28654;DHT22;24320;56.980;24.336;2023-05-09T00:00:31;2.30;99.90
28654;DHT22;24320;56.980;24.336;2023-05-09T00:02:58;2.30;99.90
28654;DHT22;24320;56.980;24.336;2023-05-09T00:05:25;2.30;99.90
28654;DHT22;24320;56.980;24.336;2023-05-09T00:07:52;2.40;99.90
28654;DHT22;24320;56.980;24.336;2023-05-09T00:10:19;2.40;99.90
28654;DHT22;24320;56.980;24.336;2023-05-09T00:12:47;2.40;99.90
28654;DHT22;24320;56.980;24.336;2023-05-09T00:15:15;2.30;99.90
28654;DHT22;24320;56.980;24.336;2023-05-09T00:17:42;2.30;99.90
28654;DHT22;24320;56.980;24.336;2023-05-09T00:20:11;2.20;99.90
28654;DHT22;24320;56.980;24.336;2023-05-09T00:22:39;2.20;99.90
28654;DHT22;24320;56.980;24.336;2023-05-09T00:25:10;2.10;99.90
28654;DHT22;24320;56.980;24.336;2023-05-09T00:27:37;2.10;99.90
28654;DHT22;24320;56.980;24.336;2023-05-09T00:30:05;2.00;99.90
28654;DHT22;24320;56.980;24.336;2023-05-09T00:32:32;2.00;99.90
28654;DHT22;24320;56.980;24.336;2023-05-09T00:35:00;2.00;99.90
28654;DHT22;24320;56.980;24.336;2023-05-09T00:37:28;2.00;99.90
28654;DHT22;24320;56.980;24.336;2023-05-09T00:39:56;1.90;99.90
28654;DHT22;24320;56.980;24.336;2023-05-09T00:42:23;1.90;99.90
28654;DHT22;24320;56.980;24.336;2023-05-09T00:44:50;1.90;99.90
28654;DHT22;24320;56.980;24.336;2023-05-09T00:47:17;1.90;99.90
28654;DHT22;24320;56.980;24.336;2023-05-09T00:49:44;1.80;99.90
28654;DHT22;24320;56.980;24.336;2023-05-09T00:52:11;1.70;99.90
28654;DHT22;24320;56.980;24.336;2023-05-09T00:54:38;1.70;99.90
28654;DHT22;24320;56.980;24.336;2023-05-09T00:57:05;1.60;99.90
28654;DHT22;24320;56.980;24.336;2023-05-09T00:59:34;1.50;99.90
28654;DHT22;24320;56.980;24.336;2023-05-09T01:02:01;1.50;99.90
28654;DHT22;24320;56.980;24.336;2023-05-09T01:07:21;1.50;99.90
28654;DHT22;24320;56.980;24.336;2023-05-09T01:12:46;1.40;99.90
28654;DHT22;24320;56.980;24.336;2023-05-09T01:20:42;1.40;99.90
28654;DHT22;24320;56.980;24.336;2023-05-09T01:31:24;1.30;99.90
28654;DHT22;24320;56.980;24.336;2023-05-09T01:33:57;1.30;99.90
28654;DHT22;24320;56.980;24.336;2023-05-09T01:36:27;1.30;99.90
28654;DHT22;24320;56.980;24.336;2023-05-09T01:38:56;1.30;99.90
28654;DHT22;24320;56.980;24.336;2023-05-09T01:41:27;1.30;99.90
28654;DHT22;24320;56.980;24.336;2023-05-09T01:43:58;1.20;99.90
28654;DHT22;24320;56.980;24.336;2023-05-09T01:46:27;1.20;99.90
28654;DHT22;24320;56.980;24.336;2023-05-09T01:48:55;1.30;99.90
28654;DHT22;24320;56.980;24.336;2023-05-09T01:51:24;1.30;99.90
28654;DHT22;24320;56.980;24.336;2023-05-09T01:53:53;1.30;99.90
28654;DHT22;24320;56.980;24.336;2023-05-09T01:56:23;1.40;99.90
28654;DHT22;24320;56.980;24.336;2023-05-09T01:58:52;1.40;99.90
28654;DHT22;24320;56.980;24.336;2023-05-09T02:01:20;1.40;99.90
28654;DHT22;24320;56.980;24.336;2023-05-09T02:03:50;1.40;99.90
28654;DHT22;24320;56.980;24.336;2023-05-09T02:06:20;1.40;99.90
28654;DHT22;24320;56.980;24.336;2023-05-09T02:08:49;1.30;99.90
28654;DHT22;24320;56.980;24.336;2023-05-09T02:11:16;1.20;99.90
28654;DHT22;24320;56.980;24.336;2023-05-09T02:13:43;1.20;99.90
28654;DHT22;24320;56.980;24.336;2023-05-09T02:16:10;1.10;99.90
28654;DHT22;24320;56.980;24.336;2023-05-09T02:18:38;1.10;99.90
28654;DHT22;24320;56.980;24.336;2023-05-09T02:21:05;1.00;99.90
28654;DHT22;24320;56.980;24.336;2023-05-09T02:23:32;1.00;99.90
28654;DHT22;24320;56.980;24.336;2023-05-09T02:26:00;0.90;99.90
28654;DHT22;24320;56.980;24.336;2023-05-09T02:28:28;0.90;99.90
28654;DHT22;24320;56.980;24.336;2023-05-09T02:30:57;0.90;99.90
28654;DHT22;24320;56.980;24.336;2023-05-09T02:33:26;0.90;99.90
28654;DHT22;24320;56.980;24.336;2023-05-09T02:35:54;0.80;99.90
28654;DHT22;24320;56.980;24.336;2023-05-09T02:38:22;0.90;99.90
28654;DHT22;24320;56.980;24.336;2023-05-09T02:40:50;0.90;99.90
28654;DHT22;24320;56.980;24.336;2023-05-09T02:43:18;0.90;99.90
28654;DHT22;24320;56.980;24.336;2023-05-09T02:45:45;0.90;99.90
28654;DHT22;24320;56.980;24.336;2023-05-09T02:48:12;1.00;99.90
28654;DHT22;24320;56.980;24.336;2023-05-09T02:50:39;1.10;99.90
28654;DHT22;24320;56.980;24.336;2023-05-09T02:53:08;1.20;99.90
28654;DHT22;24320;56.980;24.336;2023-05-09T02:55:35;1.30;99.90
28654;DHT22;24320;56.980;24.336;2023-05-09T02:58:02;1.40;99.90
28654;DHT22;24320;56.980;24.336;2023-05-09T03:00:40;1.80;99.90
28654;DHT22;24320;56.980;24.336;2023-05-09T03:03:07;2.50;99.90
28654;DHT22;24320;56.980;24.336;2023-05-09T03:05:34;3.40;99.90
28654;DHT22;24320;56.980;24.336;2023-05-09T03:08:02;4.20;99.90
28654;DHT22;24320;56.980;24.336;2023-05-09T03:10:29;4.90;99.90
28654;DHT22;24320;56.980;24.336;2023-05-09T03:12:56;5.60;99.90
28654;DHT22;24320;56.980;24.336;2023-05-09T03:15:23;6.40;99.90
28654;DHT22;24320;56.980;24.336;2023-05-09T03:17:50;7.30;99.90
28654;DHT22;24320;56.980;24.336;2023-05-09T03:20:17;8.20;99.90
28654;DHT22;24320;56.980;24.336;2023-05-09T03:22:44;8.90;99.90
28654;DHT22;24320;56.980;24.336;2023-05-09T03:25:11;9.50;99.90
28654;DHT22;24320;56.980;24.336;2023-05-09T03:27:39;10.10;99.90
28654;DHT22;24320;56.980;24.336;2023-05-09T03:30:06;10.60;99.90
28654;DHT22;24320;56.980;24.336;2023-05-09T03:32:33;11.20;99.90
28654;DHT22;24320;56.980;24.336;2023-05-09T03:35:01;11.70;99.90
28654;DHT22;24320;56.980;24.336;2023-05-09T03:37:28;12.00;99.90
28654;DHT22;24320;56.980;24.336;2023-05-09T03:39:55;12.30;98.70
28654;DHT22;24320;56.980;24.336;2023-05-09T03:42:22;12.60;95.10
28654;DHT22;24320;56.980;24.336;2023-05-09T03:44:49;12.80;93.90
28654;DHT22;24320;56.980;24.336;2023-05-09T03:47:16;12.90;92.50
28654;DHT22;24320;56.980;24.336;2023-05-09T03:49:43;13.10;91.30
28654;DHT22;24320;56.980;24.336;2023-05-09T03:52:10;13.40;90.80
28654;DHT22;24320;56.980;24.336;2023-05-09T03:54:37;13.70;88.30
28654;DHT22;24320;56.980;24.336;2023-05-09T03:57:04;13.80;81.50
28654;DHT22;24320;56.980;24.336;2023-05-09T03:59:31;13.90;80.50
28654;DHT22;24320;56.980;24.336;2023-05-09T04:01:58;13.90;80.10
28654;DHT22;24320;56.980;24.336;2023-05-09T04:04:25;14.00;79.50
28654;DHT22;24320;56.980;24.336;2023-05-09T04:06:52;14.00;80.00
28654;DHT22;24320;56.980;24.336;2023-05-09T04:09:19;14.00;79.00
28654;DHT22;24320;56.980;24.336;2023-05-09T04:11:46;14.20;76.50
28654;DHT22;24320;56.980;24.336;2023-05-09T04:14:13;14.10;75.80
28654;DHT22;24320;56.980;24.336;2023-05-09T04:19:17;14.00;74.90
28654;DHT22;24320;56.980;24.336;2023-05-09T04:21:44;13.90;74.80
28654;DHT22;24320;56.980;24.336;2023-05-09T04:24:11;13.80;77.00
28654;DHT22;24320;56.980;24.336;2023-05-09T04:26:38;13.80;74.50
28654;DHT22;24320;56.980;24.336;2023-05-09T04:29:05;13.90;76.40
28654;DHT22;24320;56.980;24.336;2023-05-09T04:31:32;14.00;73.80
28654;DHT22;24320;56.980;24.336;2023-05-09T04:33:59;14.10;74.30
28654;DHT22;24320;56.980;24.336;2023-05-09T04:36:26;14.30;74.10
28654;DHT22;24320;56.980;24.336;2023-05-09T04:38:54;14.60;71.80
28654;DHT22;24320;56.980;24.336;2023-05-09T04:41:21;14.80;72.30
28654;DHT22;24320;56.980;24.336;2023-05-09T04:43:49;15.00;72.50
28654;DHT22;24320;56.980;24.336;2023-05-09T04:46:17;15.40;70.40
28654;DHT22;24320;56.980;24.336;2023-05-09T04:48:44;15.60;71.00
28654;DHT22;24320;56.980;24.336;2023-05-09T04:51:12;15.90;68.40
28654;DHT22;24320;56.980;24.336;2023-05-09T04:53:38;16.20;69.10
28654;DHT22;24320;56.980;24.336;2023-05-09T04:56:06;16.70;69.00
28654;DHT22;24320;56.980;24.336;2023-05-09T04:58:33;17.00;67.60
28654;DHT22;24320;56.980;24.336;2023-05-09T05:01:05;17.40;63.90
28654;DHT22;24320;56.980;24.336;2023-05-09T05:03:32;17.60;64.50
28654;DHT22;24320;56.980;24.336;2023-05-09T05:05:59;17.90;61.30
28654;DHT22;24320;56.980;24.336;2023-05-09T05:08:26;18.10;62.40
28654;DHT22;24320;56.980;24.336;2023-05-09T05:10:53;18.60;62.00
28654;DHT22;24320;56.980;24.336;2023-05-09T05:13:20;19.00;61.00
28654;DHT22;24320;56.980;24.336;2023-05-09T05:15:47;19.50;61.00
28654;DHT22;24320;56.980;24.336;2023-05-09T05:18:15;19.80;58.90
28654;DHT22;24320;56.980;24.336;2023-05-09T05:20:43;20.10;56.10
28654;DHT22;24320;56.980;24.336;2023-05-09T05:23:10;20.30;53.90
28654;DHT22;24320;56.980;24.336;2023-05-09T05:25:37;20.10;54.70
28654;DHT22;24320;56.980;24.336;2023-05-09T05:28:04;20.10;53.40
28654;DHT22;24320;56.980;24.336;2023-05-09T05:30:31;20.00;53.70
28654;DHT22;24320;56.980;24.336;2023-05-09T05:33:00;20.00;52.00
28654;DHT22;24320;56.980;24.336;2023-05-09T05:35:27;20.10;52.30
28654;DHT22;24320;56.980;24.336;2023-05-09T05:37:55;20.10;52.60
28654;DHT22;24320;56.980;24.336;2023-05-09T05:40:22;20.20;51.60
28654;DHT22;24320;56.980;24.336;2023-05-09T05:42:49;20.30;53.20
28654;DHT22;24320;56.980;24.336;2023-05-09T05:45:16;20.70;52.00
28654;DHT22;24320;56.980;24.336;2023-05-09T05:47:43;21.00;51.00
28654;DHT22;24320;56.980;24.336;2023-05-09T05:50:11;21.10;51.10
28654;DHT22;24320;56.980;24.336;2023-05-09T05:52:39;21.20;50.00
28654;DHT22;24320;56.980;24.336;2023-05-09T05:55:06;21.40;47.00
28654;DHT22;24320;56.980;24.336;2023-05-09T05:57:33;21.30;48.90
28654;DHT22;24320;56.980;24.336;2023-05-09T06:00:01;21.30;48.70
28654;DHT22;24320;56.980;24.336;2023-05-09T06:02:31;21.50;48.60
28654;DHT22;24320;56.980;24.336;2023-05-09T06:04:58;21.60;47.20
28654;DHT22;24320;56.980;24.336;2023-05-09T06:07:25;21.50;47.70
28654;DHT22;24320;56.980;24.336;2023-05-09T06:09:52;21.30;46.80
28654;DHT22;24320;56.980;24.336;2023-05-09T06:12:19;21.40;49.00
28654;DHT22;24320;56.980;24.336;2023-05-09T06:14:46;21.60;48.20
28654;DHT22;24320;56.980;24.336;2023-05-09T06:17:13;21.90;47.60
28654;DHT22;24320;56.980;24.336;2023-05-09T06:19:40;21.90;46.60
28654;DHT22;24320;56.980;24.336;2023-05-09T06:22:07;21.70;48.60
28654;DHT22;24320;56.980;24.336;2023-05-09T06:24:34;21.60;47.90
28654;DHT22;24320;56.980;24.336;2023-05-09T06:27:03;21.70;48.60
28654;DHT22;24320;56.980;24.336;2023-05-09T06:29:30;21.90;48.30
28654;DHT22;24320;56.980;24.336;2023-05-09T06:31:56;21.90;45.50
28654;DHT22;24320;56.980;24.336;2023-05-09T06:34:23;21.80;47.50
28654;DHT22;24320;56.980;24.336;2023-05-09T06:36:50;21.70;45.80
28654;DHT22;24320;56.980;24.336;2023-05-09T06:39:18;21.70;45.30
28654;DHT22;24320;56.980;24.336;2023-05-09T06:41:45;21.60;45.90
28654;DHT22;24320;56.980;24.336;2023-05-09T06:44:12;21.60;45.60
28654;DHT22;24320;56.980;24.336;2023-05-09T06:46:41;21.70;46.80
28654;DHT22;24320;56.980;24.336;2023-05-09T06:49:09;21.80;46.10
28654;DHT22;24320;56.980;24.336;2023-05-09T06:51:36;21.80;44.50
28654;DHT22;24320;56.980;24.336;2023-05-09T06:54:03;21.80;44.30
28654;DHT22;24320;56.980;24.336;2023-05-09T06:56:30;21.70;45.70
28654;DHT22;24320;56.980;24.336;2023-05-09T06:58:57;21.60;44.70
28654;DHT22;24320;56.980;24.336;2023-05-09T07:01:24;21.50;46.60
28654;DHT22;24320;56.980;24.336;2023-05-09T07:03:51;21.50;44.10
28654;DHT22;24320;56.980;24.336;2023-05-09T07:06:18;21.50;45.00
28654;DHT22;24320;56.980;24.336;2023-05-09T07:08:46;21.80;44.50
28654;DHT22;24320;56.980;24.336;2023-05-09T07:11:13;22.00;46.10
28654;DHT22;24320;56.980;24.336;2023-05-09T07:13:40;22.30;46.90
28654;DHT22;24320;56.980;24.336;2023-05-09T07:16:07;22.50;43.50
28654;DHT22;24320;56.980;24.336;2023-05-09T07:18:34;22.50;42.10
28654;DHT22;24320;56.980;24.336;2023-05-09T07:21:01;22.70;43.90
28654;DHT22;24320;56.980;24.336;2023-05-09T07:23:28;22.60;44.60
28654;DHT22;24320;56.980;24.336;2023-05-09T07:25:56;22.70;45.10
28654;DHT22;24320;56.980;24.336;2023-05-09T07:28:24;22.70;45.40
28654;DHT22;24320;56.980;24.336;2023-05-09T07:30:54;22.70;44.30
28654;DHT22;24320;56.980;24.336;2023-05-09T07:33:21;22.70;44.20
28654;DHT22;24320;56.980;24.336;2023-05-09T07:35:48;22.70;43.80
28654;DHT22;24320;56.980;24.336;2023-05-09T07:38:15;22.50;43.50
28654;DHT22;24320;56.980;24.336;2023-05-09T07:40:42;22.30;45.00
28654;DHT22;24320;56.980;24.336;2023-05-09T07:43:09;22.30;44.00
28654;DHT22;24320;56.980;24.336;2023-05-09T07:45:36;22.30;44.70
28654;DHT22;24320;56.980;24.336;2023-05-09T07:48:03;22.30;43.40
28654;DHT22;24320;56.980;24.336;2023-05-09T07:50:30;22.20;43.10
28654;DHT22;24320;56.980;24.336;2023-05-09T07:52:57;22.10;43.80
28654;DHT22;24320;56.980;24.336;2023-05-09T07:55:25;21.90;41.00
28654;DHT22;24320;56.980;24.336;2023-05-09T07:57:52;21.80;42.60
28654;DHT22;24320;56.980;24.336;2023-05-09T08:00:19;21.70;43.40
28654;DHT22;24320;56.980;24.336;2023-05-09T08:02:50;21.60;43.80
28654;DHT22;24320;56.980;24.336;2023-05-09T08:05:17;21.60;45.40
28654;DHT22;24320;56.980;24.336;2023-05-09T08:07:45;21.60;44.90
28654;DHT22;24320;56.980;24.336;2023-05-09T08:10:12;21.50;45.50
28654;DHT22;24320;56.980;24.336;2023-05-09T08:12:39;21.30;43.70
28654;DHT22;24320;56.980;24.336;2023-05-09T08:15:06;21.20;45.30
28654;DHT22;24320;56.980;24.336;2023-05-09T08:17:33;21.10;44.70
28654;DHT22;24320;56.980;24.336;2023-05-09T08:20:01;21.20;44.40
28654;DHT22;24320;56.980;24.336;2023-05-09T08:22:28;21.10;44.80
28654;DHT22;24320;56.980;24.336;2023-05-09T08:24:55;21.10;42.60
28654;DHT22;24320;56.980;24.336;2023-05-09T08:27:21;21.10;47.10
28654;DHT22;24320;56.980;24.336;2023-05-09T08:29:48;21.10;45.00
28654;DHT22;24320;56.980;24.336;2023-05-09T08:32:15;21.20;45.10
28654;DHT22;24320;56.980;24.336;2023-05-09T08:34:42;21.20;46.10
28654;DHT22;24320;56.980;24.336;2023-05-09T08:37:09;21.20;44.00
28654;DHT22;24320;56.980;24.336;2023-05-09T08:39:40;21.00;43.20
28654;DHT22;24320;56.980;24.336;2023-05-09T08:42:08;20.70;44.90
28654;DHT22;24320;56.980;24.336;2023-05-09T08:44:35;20.60;44.70
28654;DHT22;24320;56.980;24.336;2023-05-09T08:47:03;20.50;44.40
28654;DHT22;24320;56.980;24.336;2023-05-09T08:49:30;20.50;43.70
28654;DHT22;24320;56.980;24.336;2023-05-09T08:51:59;20.40;44.30
28654;DHT22;24320;56.980;24.336;2023-05-09T08:54:26;20.30;44.50
28654;DHT22;24320;56.980;24.336;2023-05-09T08:56:53;20.20;44.80
28654;DHT22;24320;56.980;24.336;2023-05-09T08:59:21;20.20;43.60
28654;DHT22;24320;56.980;24.336;2023-05-09T09:01:48;20.20;45.30
28654;DHT22;24320;56.980;24.336;2023-05-09T09:04:15;20.30;42.60
28654;DHT22;24320;56.980;24.336;2023-05-09T09:06:43;20.30;45.40
28654;DHT22;24320;56.980;24.336;2023-05-09T09:09:12;20.20;44.60
28654;DHT22;24320;56.980;24.336;2023-05-09T09:11:39;20.10;45.30
28654;DHT22;24320;56.980;24.336;2023-05-09T09:14:11;20.10;44.90
28654;DHT22;24320;56.980;24.336;2023-05-09T09:16:41;20.10;42.40
28654;DHT22;24320;56.980;24.336;2023-05-09T09:19:11;19.90;44.10
28654;DHT22;24320;56.980;24.336;2023-05-09T09:21:40;19.90;46.90
28654;DHT22;24320;56.980;24.336;2023-05-09T09:24:12;20.10;42.50
28654;DHT22;24320;56.980;24.336;2023-05-09T09:26:46;19.90;42.80
28654;DHT22;24320;56.980;24.336;2023-05-09T09:29:14;19.60;47.20
28654;DHT22;24320;56.980;24.336;2023-05-09T09:31:45;19.60;47.40
28654;DHT22;24320;56.980;24.336;2023-05-09T09:34:19;19.70;47.30
28654;DHT22;24320;56.980;24.336;2023-05-09T09:36:47;19.80;47.20
28654;DHT22;24320;56.980;24.336;2023-05-09T09:39:14;19.90;42.70
28654;DHT22;24320;56.980;24.336;2023-05-09T09:41:41;19.80;44.00
28654;DHT22;24320;56.980;24.336;2023-05-09T09:44:11;19.90;48.00
28654;DHT22;24320;56.980;24.336;2023-05-09T09:46:50;20.00;44.90
28654;DHT22;24320;56.980;24.336;2023-05-09T09:49:20;19.90;45.30
28654;DHT22;24320;56.980;24.336;2023-05-09T09:51:52;19.90;43.60
28654;DHT22;24320;56.980;24.336;2023-05-09T09:54:20;19.90;42.30
28654;DHT22;24320;56.980;24.336;2023-05-09T09:56:49;19.80;45.40
28654;DHT22;24320;56.980;24.336;2023-05-09T09:59:20;19.80;43.40
28654;DHT22;24320;56.980;24.336;2023-05-09T10:02:00;19.80;43.20
28654;DHT22;24320;56.980;24.336;2023-05-09T10:04:34;19.70;44.00
28654;DHT22;24320;56.980;24.336;2023-05-09T10:07:08;19.60;44.60
28654;DHT22;24320;56.980;24.336;2023-05-09T10:09:40;19.50;46.00
28654;DHT22;24320;56.980;24.336;2023-05-09T10:12:08;19.70;44.40
28654;DHT22;24320;56.980;24.336;2023-05-09T10:14:36;19.80;46.60
28654;DHT22;24320;56.980;24.336;2023-05-09T10:17:04;19.80;46.60
28654;DHT22;24320;56.980;24.336;2023-05-09T10:19:32;19.80;43.60
28654;DHT22;24320;56.980;24.336;2023-05-09T10:22:04;19.80;46.00
28654;DHT22;24320;56.980;24.336;2023-05-09T10:24:47;19.70;43.70
28654;DHT22;24320;56.980;24.336;2023-05-09T10:27:20;19.60;43.00
28654;DHT22;24320;56.980;24.336;2023-05-09T10:29:53;19.60;45.70
28654;DHT22;24320;56.980;24.336;2023-05-09T10:32:28;19.60;45.00
28654;DHT22;24320;56.980;24.336;2023-05-09T10:35:03;19.80;44.80
28654;DHT22;24320;56.980;24.336;2023-05-09T10:37:31;19.80;44.80
28654;DHT22;24320;56.980;24.336;2023-05-09T10:40:02;19.80;42.50
28654;DHT22;24320;56.980;24.336;2023-05-09T10:42:30;19.70;41.00
28654;DHT22;24320;56.980;24.336;2023-05-09T10:44:57;19.60;43.80
28654;DHT22;24320;56.980;24.336;2023-05-09T10:47:25;19.60;44.90
28654;DHT22;24320;56.980;24.336;2023-05-09T10:49:54;19.70;43.70
28654;DHT22;24320;56.980;24.336;2023-05-09T10:52:21;19.70;44.50
28654;DHT22;24320;56.980;24.336;2023-05-09T10:55:02;19.70;47.20
28654;DHT22;24320;56.980;24.336;2023-05-09T10:57:31;19.80;41.00
28654;DHT22;24320;56.980;24.336;2023-05-09T10:59:58;19.70;43.90
28654;DHT22;24320;56.980;24.336;2023-05-09T11:02:26;19.80;45.80
28654;DHT22;24320;56.980;24.336;2023-05-09T11:05:16;19.90;44.30
28654;DHT22;24320;56.980;24.336;2023-05-09T11:07:44;19.70;43.80
28654;DHT22;24320;56.980;24.336;2023-05-09T11:10:17;19.70;45.00
28654;DHT22;24320;56.980;24.336;2023-05-09T11:12:59;19.80;47.00
28654;DHT22;24320;56.980;24.336;2023-05-09T11:15:26;19.90;44.30
28654;DHT22;24320;56.980;24.336;2023-05-09T11:18:10;19.90;44.60
28654;DHT22;24320;56.980;24.336;2023-05-09T11:20:45;19.90;42.30
28654;DHT22;24320;56.980;24.336;2023-05-09T11:23:21;19.90;44.50
28654;DHT22;24320;56.980;24.336;2023-05-09T11:25:51;19.90;44.60
28654;DHT22;24320;56.980;24.336;2023-05-09T11:28:26;20.00;43.40
28654;DHT22;24320;56.980;24.336;2023-05-09T11:33:35;20.00;44.80
28654;DHT22;24320;56.980;24.336;2023-05-09T11:36:18;20.00;45.50
28654;DHT22;24320;56.980;24.336;2023-05-09T11:38:46;19.90;44.40
28654;DHT22;24320;56.980;24.336;2023-05-09T11:41:14;19.90;43.80
28654;DHT22;24320;56.980;24.336;2023-05-09T11:43:42;19.70;43.10
28654;DHT22;24320;56.980;24.336;2023-05-09T11:46:10;19.70;45.90
28654;DHT22;24320;56.980;24.336;2023-05-09T11:48:39;19.80;45.10
28654;DHT22;24320;56.980;24.336;2023-05-09T11:51:17;19.80;46.50
28654;DHT22;24320;56.980;24.336;2023-05-09T11:53:48;19.80;44.80
28654;DHT22;24320;56.980;24.336;2023-05-09T11:56:16;19.80;44.10
28654;DHT22;24320;56.980;24.336;2023-05-09T11:58:43;19.70;43.30
28654;DHT22;24320;56.980;24.336;2023-05-09T12:01:12;19.70;45.20
28654;DHT22;24320;56.980;24.336;2023-05-09T12:03:45;19.90;44.60
28654;DHT22;24320;56.980;24.336;2023-05-09T12:06:16;19.90;43.00
28654;DHT22;24320;56.980;24.336;2023-05-09T12:08:44;19.80;42.70
28654;DHT22;24320;56.980;24.336;2023-05-09T12:11:13;19.80;41.70
28654;DHT22;24320;56.980;24.336;2023-05-09T12:13:47;19.80;42.20
28654;DHT22;24320;56.980;24.336;2023-05-09T12:16:16;19.90;44.00
28654;DHT22;24320;56.980;24.336;2023-05-09T12:18:48;19.90;42.60
28654;DHT22;24320;56.980;24.336;2023-05-09T12:21:19;19.70;41.40
28654;DHT22;24320;56.980;24.336;2023-05-09T12:23:46;19.60;42.40
28654;DHT22;24320;56.980;24.336;2023-05-09T12:26:17;19.60;43.60
28654;DHT22;24320;56.980;24.336;2023-05-09T12:28:44;19.60;42.40
28654;DHT22;24320;56.980;24.336;2023-05-09T12:31:11;19.60;42.40
28654;DHT22;24320;56.980;24.336;2023-05-09T12:33:38;19.60;42.90
28654;DHT22;24320;56.980;24.336;2023-05-09T12:36:10;19.70;43.20
28654;DHT22;24320;56.980;24.336;2023-05-09T12:38:37;19.80;43.30
28654;DHT22;24320;56.980;24.336;2023-05-09T12:41:07;19.90;43.90
28654;DHT22;24320;56.980;24.336;2023-05-09T12:43:54;20.00;45.30
28654;DHT22;24320;56.980;24.336;2023-05-09T12:46:21;20.00;43.90
28654;DHT22;24320;56.980;24.336;2023-05-09T12:48:49;20.00;41.50
28654;DHT22;24320;56.980;24.336;2023-05-09T12:51:20;19.90;39.30
28654;DHT22;24320;56.980;24.336;2023-05-09T12:53:47;20.00;43.80
28654;DHT22;24320;56.980;24.336;2023-05-09T12:56:21;20.00;42.30
28654;DHT22;24320;56.980;24.336;2023-05-09T12:58:53;20.00;43.40
28654;DHT22;24320;56.980;24.336;2023-05-09T13:01:22;20.10;42.50
28654;DHT22;24320;56.980;24.336;2023-05-09T13:04:01;20.20;41.80
28654;DHT22;24320;56.980;24.336;2023-05-09T13:06:28;20.00;41.00
28654;DHT22;24320;56.980;24.336;2023-05-09T13:09:00;20.00;41.20
28654;DHT22;24320;56.980;24.336;2023-05-09T13:11:28;19.90;39.80
28654;DHT22;24320;56.980;24.336;2023-05-09T13:13:55;19.90;42.50
28654;DHT22;24320;56.980;24.336;2023-05-09T13:16:23;20.00;42.60
28654;DHT22;24320;56.980;24.336;2023-05-09T13:18:50;19.90;42.30
28654;DHT22;24320;56.980;24.336;2023-05-09T13:21:17;19.80;41.30
28654;DHT22;24320;56.980;24.336;2023-05-09T13:23:44;19.90;41.50
28654;DHT22;24320;56.980;24.336;2023-05-09T13:26:11;19.90;43.50
28654;DHT22;24320;56.980;24.336;2023-05-09T13:28:38;20.00;41.50
28654;DHT22;24320;56.980;24.336;2023-05-09T13:31:05;19.90;41.30
28654;DHT22;24320;56.980;24.336;2023-05-09T13:33:33;19.80;40.80
28654;DHT22;24320;56.980;24.336;2023-05-09T13:36:00;19.80;39.50
28654;DHT22;24320;56.980;24.336;2023-05-09T13:38:27;19.80;41.90
28654;DHT22;24320;56.980;24.336;2023-05-09T13:40:57;19.80;40.30
28654;DHT22;24320;56.980;24.336;2023-05-09T13:43:24;19.80;41.20
28654;DHT22;24320;56.980;24.336;2023-05-09T13:45:51;19.80;41.80
28654;DHT22;24320;56.980;24.336;2023-05-09T13:48:18;19.80;41.90
28654;DHT22;24320;56.980;24.336;2023-05-09T13:50:45;19.90;43.20
28654;DHT22;24320;56.980;24.336;2023-05-09T13:53:12;19.90;40.80
28654;DHT22;24320;56.980;24.336;2023-05-09T13:55:39;20.00;41.30
28654;DHT22;24320;56.980;24.336;2023-05-09T13:58:06;20.00;40.50
28654;DHT22;24320;56.980;24.336;2023-05-09T14:00:33;20.00;40.90
28654;DHT22;24320;56.980;24.336;2023-05-09T14:03:01;19.80;41.20
28654;DHT22;24320;56.980;24.336;2023-05-09T14:05:32;19.80;40.40
28654;DHT22;24320;56.980;24.336;2023-05-09T14:07:59;19.90;39.10
28654;DHT22;24320;56.980;24.336;2023-05-09T14:10:27;19.90;40.60
28654;DHT22;24320;56.980;24.336;2023-05-09T14:12:54;19.90;42.70
28654;DHT22;24320;56.980;24.336;2023-05-09T14:15:22;19.90;42.10
28654;DHT22;24320;56.980;24.336;2023-05-09T14:17:49;19.80;41.80
28654;DHT22;24320;56.980;24.336;2023-05-09T14:20:16;19.70;41.10
28654;DHT22;24320;56.980;24.336;2023-05-09T14:22:43;19.60;41.10
28654;DHT22;24320;56.980;24.336;2023-05-09T14:25:10;19.60;43.00
28654;DHT22;24320;56.980;24.336;2023-05-09T14:27:38;19.50;41.60
28654;DHT22;24320;56.980;24.336;2023-05-09T14:30:05;19.50;42.20
28654;DHT22;24320;56.980;24.336;2023-05-09T14:32:32;19.40;42.20
28654;DHT22;24320;56.980;24.336;2023-05-09T14:34:59;19.30;39.90
28654;DHT22;24320;56.980;24.336;2023-05-09T14:37:27;19.30;43.10
28654;DHT22;24320;56.980;24.336;2023-05-09T14:39:55;19.30;41.60
28654;DHT22;24320;56.980;24.336;2023-05-09T14:42:22;19.30;40.60
28654;DHT22;24320;56.980;24.336;2023-05-09T14:44:49;19.30;43.10
28654;DHT22;24320;56.980;24.336;2023-05-09T14:47:16;19.30;42.70
28654;DHT22;24320;56.980;24.336;2023-05-09T14:49:43;19.20;40.50
28654;DHT22;24320;56.980;24.336;2023-05-09T14:52:10;19.20;41.60
28654;DHT22;24320;56.980;24.336;2023-05-09T14:54:37;19.10;42.30
28654;DHT22;24320;56.980;24.336;2023-05-09T14:57:04;19.20;43.30
28654;DHT22;24320;56.980;24.336;2023-05-09T14:59:33;19.20;43.90
28654;DHT22;24320;56.980;24.336;2023-05-09T15:02:02;19.10;43.00
28654;DHT22;24320;56.980;24.336;2023-05-09T15:04:30;19.00;42.90
28654;DHT22;24320;56.980;24.336;2023-05-09T15:06:57;18.90;42.20
28654;DHT22;24320;56.980;24.336;2023-05-09T15:09:24;19.00;42.50
28654;DHT22;24320;56.980;24.336;2023-05-09T15:11:52;19.10;42.40
28654;DHT22;24320;56.980;24.336;2023-05-09T15:14:20;19.00;41.10
28654;DHT22;24320;56.980;24.336;2023-05-09T15:16:47;19.00;40.80
28654;DHT22;24320;56.980;24.336;2023-05-09T15:19:17;18.90;41.70
28654;DHT22;24320;56.980;24.336;2023-05-09T15:21:44;18.90;42.40
28654;DHT22;24320;56.980;24.336;2023-05-09T15:24:11;18.90;42.20
28654;DHT22;24320;56.980;24.336;2023-05-09T15:26:38;18.80;42.00
28654;DHT22;24320;56.980;24.336;2023-05-09T15:29:05;18.70;41.70
28654;DHT22;24320;56.980;24.336;2023-05-09T15:31:34;18.60;41.60
28654;DHT22;24320;56.980;24.336;2023-05-09T15:34:01;18.60;42.60
28654;DHT22;24320;56.980;24.336;2023-05-09T15:36:28;18.60;42.30
28654;DHT22;24320;56.980;24.336;2023-05-09T15:38:55;18.60;42.00
28654;DHT22;24320;56.980;24.336;2023-05-09T15:41:23;18.60;42.90
28654;DHT22;24320;56.980;24.336;2023-05-09T15:43:51;18.50;43.50
28654;DHT22;24320;56.980;24.336;2023-05-09T15:46:18;18.30;42.80
28654;DHT22;24320;56.980;24.336;2023-05-09T15:48:45;18.30;43.80
28654;DHT22;24320;56.980;24.336;2023-05-09T15:51:13;18.30;43.10